N614CB KCRQ-KBUR
Flight info
| Callsign | N614CB |
|---|---|
| Flight time | 0h 31m |
| Altitude | 8000 |
| Route | DCT OCN V23 POPPR DCT SMO DCT SILEX DCT |
| Aircraft | SF50/L-V/N |
Departure
| Time | 2026-05-03 23:17 |
|---|---|
| Airport | McClellan-Palomar Airport (KCRQ) |
Arrival
| Time | 2026-05-03 23:48 |
|---|---|
| Airport | Hollywood Burbank/Bob Hope Airport (KBUR) |
| Time | Latitude | Longitude | Altitude | Speed | Heading |
|---|---|---|---|---|---|
| 2026-05-03 23:17 | 33.13949 | -117.37119 | 3449 ft | 169 kts | 290° |
| 2026-05-03 23:18 | 33.14158 | -117.37754 | 3616 ft | 168 kts | 290° |
| 2026-05-03 23:18 | 33.14578 | -117.39060 | 3940 ft | 169 kts | 290° |
| 2026-05-03 23:18 | 33.14987 | -117.40379 | 4265 ft | 170 kts | 289° |
| 2026-05-03 23:18 | 33.15389 | -117.41707 | 4566 ft | 170 kts | 291° |
| 2026-05-03 23:19 | 33.16234 | -117.42663 | 4832 ft | 176 kts | 341° |
| 2026-05-03 23:19 | 33.17438 | -117.42655 | 5120 ft | 178 kts | 8° |
| 2026-05-03 23:19 | 33.18661 | -117.42417 | 5400 ft | 178 kts | 6° |
| 2026-05-03 23:19 | 33.19897 | -117.42266 | 5688 ft | 179 kts | 4° |
| 2026-05-03 23:20 | 33.21140 | -117.42123 | 5969 ft | 180 kts | 4° |
| 2026-05-03 23:20 | 33.22390 | -117.41978 | 6254 ft | 181 kts | 4° |
| 2026-05-03 23:20 | 33.23637 | -117.42008 | 6507 ft | 180 kts | 345° |
| 2026-05-03 23:20 | 33.24763 | -117.42640 | 6783 ft | 179 kts | 323° |
| 2026-05-03 23:21 | 33.25662 | -117.43663 | 7042 ft | 179 kts | 313° |
| 2026-05-03 23:21 | 33.26559 | -117.44700 | 7320 ft | 180 kts | 315° |
| 2026-05-03 23:21 | 33.27159 | -117.45386 | 7500 ft | 180 kts | 315° |
| 2026-05-03 23:21 | 33.28059 | -117.46431 | 7766 ft | 181 kts | 315° |
| 2026-05-03 23:22 | 33.29903 | -117.48580 | 8034 ft | 195 kts | 314° |
| 2026-05-03 23:22 | 33.30900 | -117.49742 | 8046 ft | 204 kts | 315° |
| 2026-05-03 23:22 | 33.31931 | -117.50944 | 8049 ft | 210 kts | 315° |
| 2026-05-03 23:23 | 33.32992 | -117.52181 | 8049 ft | 214 kts | 315° |
| 2026-05-03 23:23 | 33.34067 | -117.53432 | 8047 ft | 217 kts | 315° |
| 2026-05-03 23:23 | 33.35151 | -117.54697 | 8048 ft | 218 kts | 315° |
| 2026-05-03 23:23 | 33.36239 | -117.55968 | 8049 ft | 219 kts | 315° |
| 2026-05-03 23:24 | 33.37319 | -117.57231 | 8048 ft | 220 kts | 315° |
| 2026-05-03 23:24 | 33.38416 | -117.58512 | 8048 ft | 220 kts | 315° |
| 2026-05-03 23:24 | 33.39515 | -117.59795 | 8048 ft | 221 kts | 315° |
| 2026-05-03 23:24 | 33.40614 | -117.61081 | 8044 ft | 221 kts | 315° |
| 2026-05-03 23:25 | 33.41718 | -117.62371 | 8045 ft | 221 kts | 315° |
| 2026-05-03 23:25 | 33.42819 | -117.63660 | 8046 ft | 221 kts | 315° |
| 2026-05-03 23:25 | 33.43917 | -117.64945 | 8046 ft | 221 kts | 315° |
| 2026-05-03 23:25 | 33.45016 | -117.66230 | 8047 ft | 221 kts | 315° |
| 2026-05-03 23:26 | 33.46113 | -117.67515 | 8048 ft | 221 kts | 315° |
| 2026-05-03 23:26 | 33.47217 | -117.68807 | 8047 ft | 221 kts | 315° |
| 2026-05-03 23:26 | 33.48302 | -117.70077 | 8047 ft | 221 kts | 315° |
| 2026-05-03 23:26 | 33.49399 | -117.71365 | 8043 ft | 221 kts | 315° |
| 2026-05-03 23:27 | 33.50500 | -117.72660 | 8047 ft | 221 kts | 314° |
| 2026-05-03 23:27 | 33.51596 | -117.73946 | 8047 ft | 221 kts | 315° |
| 2026-05-03 23:27 | 33.52695 | -117.75231 | 8048 ft | 220 kts | 315° |
| 2026-05-03 23:27 | 33.53789 | -117.76510 | 8043 ft | 220 kts | 314° |
| 2026-05-03 23:28 | 33.54876 | -117.77805 | 8048 ft | 221 kts | 314° |
| 2026-05-03 23:28 | 33.55972 | -117.79097 | 8045 ft | 221 kts | 315° |
| 2026-05-03 23:28 | 33.57065 | -117.80391 | 8043 ft | 220 kts | 314° |
| 2026-05-03 23:28 | 33.58165 | -117.81673 | 8045 ft | 220 kts | 315° |
| 2026-05-03 23:29 | 33.59247 | -117.82941 | 8042 ft | 221 kts | 314° |
| 2026-05-03 23:29 | 33.60345 | -117.84235 | 8039 ft | 221 kts | 314° |
| 2026-05-03 23:29 | 33.61440 | -117.85527 | 8045 ft | 221 kts | 314° |
| 2026-05-03 23:29 | 33.62540 | -117.86821 | 8040 ft | 221 kts | 314° |
| 2026-05-03 23:30 | 33.63635 | -117.88113 | 8041 ft | 221 kts | 314° |
| 2026-05-03 23:30 | 33.64734 | -117.89407 | 8042 ft | 221 kts | 314° |
| 2026-05-03 23:30 | 33.65828 | -117.90698 | 8045 ft | 221 kts | 314° |
| 2026-05-03 23:30 | 33.66925 | -117.91993 | 8043 ft | 221 kts | 314° |
| 2026-05-03 23:31 | 33.68023 | -117.93289 | 8045 ft | 221 kts | 314° |
| 2026-05-03 23:31 | 33.69104 | -117.94566 | 8045 ft | 221 kts | 314° |
| 2026-05-03 23:31 | 33.70198 | -117.95860 | 8045 ft | 221 kts | 314° |
| 2026-05-03 23:31 | 33.71293 | -117.97153 | 8037 ft | 221 kts | 314° |
| 2026-05-03 23:32 | 33.72390 | -117.98451 | 8039 ft | 221 kts | 314° |
| 2026-05-03 23:32 | 33.73490 | -117.99750 | 8036 ft | 221 kts | 314° |
| 2026-05-03 23:32 | 33.74587 | -118.01049 | 8036 ft | 221 kts | 314° |
| 2026-05-03 23:32 | 33.75684 | -118.02346 | 8038 ft | 221 kts | 314° |
| 2026-05-03 23:33 | 33.76784 | -118.03648 | 8038 ft | 221 kts | 314° |
| 2026-05-03 23:33 | 33.77861 | -118.04962 | 8036 ft | 220 kts | 309° |
| 2026-05-03 23:33 | 33.78603 | -118.06553 | 8029 ft | 219 kts | 290° |
| 2026-05-03 23:33 | 33.79047 | -118.08312 | 7889 ft | 224 kts | 286° |
| 2026-05-03 23:34 | 33.79508 | -118.10117 | 7644 ft | 227 kts | 287° |
| 2026-05-03 23:34 | 33.79972 | -118.11922 | 7397 ft | 230 kts | 287° |
| 2026-05-03 23:34 | 33.80440 | -118.13764 | 7143 ft | 230 kts | 287° |
| 2026-05-03 23:34 | 33.80909 | -118.15607 | 6898 ft | 231 kts | 287° |
| 2026-05-03 23:35 | 33.81378 | -118.17456 | 6651 ft | 231 kts | 287° |
| 2026-05-03 23:35 | 33.81848 | -118.19302 | 6398 ft | 231 kts | 287° |
| 2026-05-03 23:35 | 33.82317 | -118.21149 | 6148 ft | 231 kts | 287° |
| 2026-05-03 23:35 | 33.82780 | -118.22976 | 6067 ft | 224 kts | 287° |
| 2026-05-03 23:36 | 33.83228 | -118.24741 | 6063 ft | 218 kts | 286° |
| 2026-05-03 23:36 | 33.83661 | -118.26453 | 6061 ft | 214 kts | 287° |
| 2026-05-03 23:36 | 33.84136 | -118.28132 | 6054 ft | 211 kts | 294° |
| 2026-05-03 23:36 | 33.84994 | -118.29551 | 6052 ft | 210 kts | 314° |
| 2026-05-03 23:37 | 33.86112 | -118.30680 | 6054 ft | 209 kts | 320° |
| 2026-05-03 23:37 | 33.87233 | -118.31799 | 6055 ft | 209 kts | 319° |
| 2026-05-03 23:37 | 33.88346 | -118.32923 | 6055 ft | 209 kts | 319° |
| 2026-05-03 23:37 | 33.89467 | -118.34049 | 6055 ft | 209 kts | 319° |
| 2026-05-03 23:38 | 33.90587 | -118.35173 | 6055 ft | 209 kts | 319° |
| 2026-05-03 23:38 | 33.91705 | -118.36297 | 6054 ft | 209 kts | 319° |
| 2026-05-03 23:38 | 33.92824 | -118.37422 | 6054 ft | 209 kts | 319° |
| 2026-05-03 23:38 | 33.93942 | -118.38546 | 6055 ft | 209 kts | 319° |
| 2026-05-03 23:39 | 33.95066 | -118.39676 | 6054 ft | 209 kts | 319° |
| 2026-05-03 23:39 | 33.96184 | -118.40801 | 6054 ft | 209 kts | 319° |
| 2026-05-03 23:39 | 33.97288 | -118.41913 | 6055 ft | 209 kts | 319° |
| 2026-05-03 23:39 | 33.98405 | -118.43036 | 6054 ft | 209 kts | 319° |
| 2026-05-03 23:40 | 33.99522 | -118.44162 | 6055 ft | 210 kts | 319° |
| 2026-05-03 23:40 | 34.00646 | -118.45292 | 6031 ft | 211 kts | 319° |
| 2026-05-03 23:40 | 34.01832 | -118.46350 | 5810 ft | 213 kts | 325° |
| 2026-05-03 23:40 | 34.03072 | -118.47334 | 5581 ft | 214 kts | 325° |
| 2026-05-03 23:41 | 34.04312 | -118.48334 | 5357 ft | 214 kts | 325° |
| 2026-05-03 23:41 | 34.05551 | -118.49338 | 5133 ft | 215 kts | 325° |
| 2026-05-03 23:41 | 34.06773 | -118.50331 | 5079 ft | 208 kts | 325° |
| 2026-05-03 23:41 | 34.07942 | -118.51280 | 5077 ft | 202 kts | 325° |
| 2026-05-03 23:42 | 34.09101 | -118.52218 | 5016 ft | 201 kts | 325° |
| 2026-05-03 23:42 | 34.10276 | -118.53155 | 4865 ft | 204 kts | 328° |
| 2026-05-03 23:42 | 34.11578 | -118.53823 | 4719 ft | 204 kts | 339° |
| 2026-05-03 23:42 | 34.12940 | -118.54346 | 4568 ft | 207 kts | 341° |
| 2026-05-03 23:43 | 34.14319 | -118.54861 | 4419 ft | 208 kts | 341° |
| 2026-05-03 23:43 | 34.15702 | -118.55377 | 4269 ft | 208 kts | 341° |
| 2026-05-03 23:43 | 34.17090 | -118.55899 | 4115 ft | 208 kts | 341° |
| 2026-05-03 23:43 | 34.18478 | -118.56420 | 3970 ft | 209 kts | 341° |
| 2026-05-03 23:44 | 34.19902 | -118.56624 | 3802 ft | 211 kts | 10° |
| 2026-05-03 23:44 | 34.21105 | -118.55656 | 3629 ft | 215 kts | 53° |
| 2026-05-03 23:44 | 34.21450 | -118.53933 | 3460 ft | 216 kts | 97° |
| 2026-05-03 23:44 | 34.21016 | -118.52259 | 3316 ft | 202 kts | 112° |
| 2026-05-03 23:45 | 34.20530 | -118.50731 | 3272 ft | 185 kts | 111° |
| 2026-05-03 23:45 | 34.20089 | -118.49334 | 3263 ft | 171 kts | 111° |
| 2026-05-03 23:45 | 34.19681 | -118.48049 | 3262 ft | 158 kts | 111° |
| 2026-05-03 23:45 | 34.19308 | -118.46862 | 3262 ft | 144 kts | 111° |
| 2026-05-03 23:46 | 34.19082 | -118.45681 | 2921 ft | 156 kts | 86° |
| 2026-05-03 23:46 | 34.19368 | -118.44398 | 2486 ft | 162 kts | 69° |
| 2026-05-03 23:46 | 34.19748 | -118.43193 | 2174 ft | 142 kts | 70° |
| 2026-05-03 23:46 | 34.19893 | -118.42086 | 1907 ft | 128 kts | 85° |
| 2026-05-03 23:47 | 34.19916 | -118.41052 | 1683 ft | 119 kts | 90° |
| 2026-05-03 23:47 | 34.19895 | -118.40061 | 1424 ft | 117 kts | 92° |
| 2026-05-03 23:47 | 34.19841 | -118.39097 | 1189 ft | 113 kts | 94° |
| 2026-05-03 23:47 | 34.19812 | -118.38170 | 1031 ft | 105 kts | 91° |
| 2026-05-03 23:48 | 34.19810 | -118.37314 | 859 ft | 100 kts | 91° |
| 2026-05-03 23:48 | 34.19791 | -118.36497 | 742 ft | 92 kts | 90° |
| 2026-05-03 23:48 | 34.19795 | -118.35778 | 720 ft | 79 kts | 91° |
| 2026-05-03 23:48 | 34.19792 | -118.35553 | 722 ft | 4 kts | 37° |
| 2026-05-03 23:49 | 34.19854 | -118.35536 | 723 ft | 0 kts | 346° |
| 2026-05-03 23:49 | 34.19859 | -118.35537 | 723 ft | 7 kts | 342° |
| 2026-05-03 23:49 | 34.19860 | -118.35538 | 723 ft | 0 kts | 339° |
| 2026-05-03 23:50 | 34.19865 | -118.35539 | 723 ft | 7 kts | 0° |
| 2026-05-03 23:50 | 34.19883 | -118.35463 | 722 ft | 8 kts | 91° |
| 2026-05-03 23:50 | 34.19881 | -118.35400 | 720 ft | 7 kts | 90° |
| 2026-05-03 23:51 | 34.19881 | -118.35343 | 718 ft | 7 kts | 90° |
| 2026-05-03 23:51 | 34.19880 | -118.35314 | 717 ft | 0 kts | 92° |
| 2026-05-03 23:51 | 34.19880 | -118.35313 | 717 ft | 0 kts | 92° |
| 2026-05-03 23:51 | 34.19863 | -118.35248 | 717 ft | 17 kts | 110° |
| 2026-05-03 23:52 | 34.19777 | -118.35231 | 715 ft | 24 kts | 176° |
| 2026-05-03 23:52 | 34.19682 | -118.35218 | 714 ft | 0 kts | 178° |